Odessa, TX

4:19 PM CDT en Octubre 24, 2014 (GMT -0500)
E. University Blvd and Bonham Ave Odessa TX | Change Station
CLOSE
Current Station
Estación meteorológica personal
Location: Odessa, TX
Altura: 2949 ft
Estaciones meteorológicas cercanas

Alt 2949 ft 31.87 °N, 102.35 °W | Updated 9 minutes ago

Despejado
Despejado
89.2 ° F
Sensación térmica 87 ° F
N
2.2
Viento Variable Viento desde Sur

Hoy
Alta -- | Baja -- ° F
--% Posibilidad de precipitaciones
Ayer
Alta -- | Baja -- ° F
Precip. -- pul
7:59 AM 7:07 PM
Luna nueva, 1% visible
Presión 30.01 pul
Visibilidad 10.0 Millas
Nubes Despejado
Índice de calor 87 ° F
Punto de rocío 53 ° F
Humedad 29%
Precipitaciones 0.00 pul
Espesor de la nieve No disponible.
UV 4 de una escala de 12
Polen 5.80 de una escala de 12
PM2.5 Buena
Flu Activity Sporadic
METAR KODO 242053Z AUTO 22007KT 10SM CLR 30/08 A3013 RMK AO2 SLP161 T03000078 56021

More Conditions Fewer Conditions

Presión 30.01 pul
Visibilidad 10.0 Millas
Nubes Despejado
Índice de calor 87 ° F
Punto de rocío 53 ° F
Humedad 29%
Precipitaciones 0.00 pul
Espesor de la nieve No disponible.
UV 4 de una escala de 12
Polen 5.80 de una escala de 12
PM2.5 Buena
Flu Activity Sporadic
METAR KODO 242053Z AUTO 22007KT 10SM CLR 30/08 A3013 RMK AO2 SLP161 T03000078 56021

More Conditions Fewer Conditions

10-Day Weather Forecast

Almanac

Astronomía

Oct. 24, 2014 Salida Puesta
Hora real 7:59 AM CDT 7:07 PM CDT
Crepúsculo civil 7:34 AM CDT 7:32 PM CDT
Crepúsculo náutico 7:06 AM CDT 8:00 PM CDT
Crepúsculo astronómico 6:37 AM CDT 8:29 PM CDT
Luna 8:39 AM CDT 7:52 PM CDT
Horas de luz 11h 57m
Horas de luz
11h 07m
Tomorrow will be 1m 47s shorter.
Luna nueva, 1% of the Moon is Illuminated
Hoy
Luna nueva
Oct 30
Cuarto creciente
Nov 6
Luna llena
Nov 14
Cuarto menguante
Nov 22
Nueva

Extremos de hoy

Máximos del estado Bajos del estado

Community

WunderPhotos

Upload Photos

1,764,659 ¡fotos cargadas!

WunderBlogs® & News

By Dr. Jeff Masters
Director of Meteorology, Weather Underground
By Kari Strenfel
Meteorologist, Weather Underground
By Christopher C. Burt
Weather Historian, Weather Underground
October 24, 2014
October 24, 2014
October 24, 2014

Nearby

Calidad del aire

  Calidad del aire Índice AQ Contaminante
Ayer Buena
PM2.5
Real Buena
PM2.5
Viernes Buena
PM10
Viernes Buena
OZONE
Sábado Buena
PM10
Sábado Buena
OZONE
Domingo Buena
PM10
Domingo Buena
OZONE
Lunes Buena
PM10
Lunes Buena
OZONE
Martes Buena
PM10
Martes Buena
OZONE

Grosos de nieve

Estación Profundido Altura
No tenemos constancia de nieve nueva.

Actividad de terremotos

Ciudad Distance Mag. Tiempo y dato
No hay informes recientes de la actividad sísmica.
Magnitud mínima muestra es 2,5.

Temperaturas de aguas costeras

Lugar Temperatura
Sin partes meteorológicos de las estaciones

Estaciones meteorológicas cercanas